Flight Briefing for CPX667

Departure Arrival
Daytona Beach International Airport (KDAB)
Click to view FAA NOTAMS
Miami International Airport (KMIA)
Click to view FAA NOTAMS
Departure Time Arrival Time
N/A N/A
Aircraft Distance
SF340AF 207nm
Departure METAR Arrival METAR
KDAB 190653Z 01008KT 10SM SCT075 OVC130 17/07 A3013 RMK AO2 SLP201 T01670072 KMIA 190653Z 35008KT 8SM OVC011 21/19 A3000 RMK AO2 SLP160 T02110194
Suggested Route
MYRA V3 MLB V437 PHK V267 BRIKL


View recent IFR Routes data
Notes



Charts and Procedures

Charts for KDAB
No chart available
Charts for KMIA
No chart available

Windy.com Weather Map